createdAt,value
2018-12-08T00:05:31.686Z,99533.80
2018-12-08T00:10:35.049Z,99524.30
2018-12-08T00:15:38.422Z,99529.83
2018-12-08T00:20:41.746Z,99535.83
2018-12-08T00:25:45.136Z,99531.18
2018-12-08T00:31:27.223Z,99534.20
2018-12-08T00:36:30.680Z,99557.02
2018-12-08T00:41:34.184Z,99554.70
2018-12-08T00:46:37.562Z,99545.25
2018-12-08T00:51:41.016Z,99559.08
2018-12-08T00:56:44.412Z,99560.44
2018-12-08T01:06:56.919Z,99561.13
2018-12-08T01:12:07.465Z,99567.09
2018-12-08T01:17:11.162Z,99555.12
2018-12-08T01:22:14.524Z,99574.37
2018-12-08T01:27:17.878Z,99553.70
2018-12-08T01:32:21.508Z,99557.50
2018-12-08T01:37:24.879Z,99546.70
2018-12-08T01:42:28.439Z,99561.33
2018-12-08T01:47:31.913Z,99569.58
2018-12-08T01:52:35.293Z,99567.43
2018-12-08T01:57:38.728Z,99555.16
2018-12-08T02:02:42.110Z,99560.31
2018-12-08T02:07:45.513Z,99561.50
2018-12-08T02:12:48.937Z,99563.95
2018-12-08T02:17:52.329Z,99558.31
2018-12-08T02:22:55.665Z,99557.77
2018-12-08T02:27:59.205Z,99565.83
2018-12-08T02:33:42.056Z,99563.69
2018-12-08T02:38:58.046Z,99565.86
2018-12-08T02:44:01.397Z,99562.47
2018-12-08T02:49:04.850Z,99569.33
2018-12-08T02:54:08.195Z,99565.69
2018-12-08T02:59:11.719Z,99564.42
2018-12-08T03:04:34.512Z,99554.12
2018-12-08T03:09:37.988Z,99535.25
2018-12-08T03:14:41.413Z,99532.09
2018-12-08T03:19:44.803Z,99525.95
2018-12-08T03:24:48.189Z,99518.70
2018-12-08T03:29:51.547Z,99528.03
2018-12-08T03:34:54.937Z,99521.59
2018-12-08T03:39:58.329Z,99514.20
2018-12-08T03:45:01.680Z,99505.94
2018-12-08T03:50:06.123Z,99500.78
2018-12-08T03:55:09.457Z,99487.69
2018-12-08T04:00:32.748Z,99481.80
2018-12-08T04:05:36.124Z,99481.30
2018-12-08T04:10:39.504Z,99485.19
2018-12-08T04:15:42.890Z,99478.08
2018-12-08T04:20:46.270Z,99460.67
2018-12-08T04:25:49.608Z,99460.61
2018-12-08T04:30:53.093Z,99468.82
2018-12-08T04:35:56.499Z,99462.58
2018-12-08T04:41:00.223Z,99464.25
2018-12-08T04:46:03.604Z,99452.42
2018-12-08T04:51:06.898Z,99449.83
2018-12-08T04:56:10.322Z,99442.02
2018-12-08T05:06:22.730Z,99441.94
2018-12-08T05:11:26.107Z,99442.05
2018-12-08T05:16:29.488Z,99441.38
2018-12-08T05:21:32.859Z,99438.44
2018-12-08T05:26:36.301Z,99435.45
2018-12-08T05:31:39.630Z,99439.88
2018-12-08T05:36:42.995Z,99435.45
2018-12-08T05:41:46.391Z,99436.33
2018-12-08T05:46:49.859Z,99429.52
2018-12-08T05:51:53.216Z,99430.50
2018-12-08T05:56:56.657Z,99431.02
2018-12-08T06:02:19.477Z,99421.87
2018-12-08T06:07:22.872Z,99418.91
2018-12-08T06:12:27.562Z,99411.59
2018-12-08T06:17:30.895Z,99414.52
2018-12-08T06:28:21.884Z,99402.83
2018-12-08T06:33:25.323Z,99406.72
2018-12-08T06:38:28.781Z,99402.83
2018-12-08T06:43:32.178Z,99407.53
2018-12-08T06:48:35.551Z,99404.98
2018-12-08T06:53:39.046Z,99391.77
2018-12-08T06:58:42.368Z,99392.10
2018-12-08T07:03:45.723Z,99396.35
2018-12-08T07:08:49.048Z,99399.35
2018-12-08T07:13:52.442Z,99378.55
2018-12-08T07:18:56.105Z,99387.69
2018-12-08T07:23:59.495Z,99372.77
2018-12-08T07:29:02.877Z,99371.07
2018-12-08T07:34:06.233Z,99359.33
2018-12-08T07:39:09.654Z,99361.08
2018-12-08T07:44:13.016Z,99358.67
2018-12-08T07:49:16.421Z,99346.97
2018-12-08T07:54:19.880Z,99336.02
2018-12-08T08:04:33.036Z,99351.26
2018-12-08T08:09:36.414Z,99344.61
2018-12-08T08:14:39.779Z,99346.39
2018-12-08T08:19:43.171Z,99342.47
2018-12-08T08:24:46.550Z,99348.87
2018-12-08T08:29:49.924Z,99351.82
2018-12-08T08:34:53.266Z,99350.03
2018-12-08T08:39:56.646Z,99342.27
2018-12-08T08:45:00.059Z,99334.24
2018-12-08T08:50:05.101Z,99336.31
2018-12-08T08:55:07.327Z,99326.19
2018-12-08T09:00:12.102Z,99315.33
2018-12-08T09:05:15.683Z,99319.81
2018-12-08T09:10:19.081Z,99306.63
2018-12-08T09:15:22.435Z,99315.59
2018-12-08T09:20:45.199Z,99304.05
2018-12-08T09:25:48.618Z,99294.25
2018-12-08T09:30:52.096Z,99295.46
2018-12-08T09:35:55.483Z,99295.95
2018-12-08T09:40:58.835Z,99285.22
2018-12-08T09:46:02.248Z,99297.95
2018-12-08T09:51:05.708Z,99286.89
2018-12-08T09:56:09.060Z,99269.24
2018-12-08T10:01:12.430Z,99271.88
2018-12-08T10:06:15.816Z,99272.19
2018-12-08T10:11:19.318Z,99256.15
2018-12-08T10:16:22.656Z,99255.09
2018-12-08T10:26:35.560Z,99248.03
2018-12-08T10:31:38.924Z,99238.23
2018-12-08T10:36:42.339Z,99239.36
2018-12-08T10:41:45.707Z,99235.33
2018-12-08T10:46:49.067Z,99229.25
2018-12-08T10:51:52.419Z,99233.28
2018-12-08T10:56:55.801Z,99224.73
2018-12-08T11:02:18.240Z,99232.28
2018-12-08T11:07:21.686Z,99227.55
2018-12-08T11:12:25.079Z,99205.59
2018-12-08T11:17:28.471Z,99215.52
2018-12-08T11:22:31.889Z,99227.41
2018-12-08T11:27:35.196Z,99231.56
2018-12-08T11:32:38.578Z,99216.84
2018-12-08T11:37:41.982Z,99215.32
2018-12-08T11:42:45.495Z,99221.52
2018-12-08T11:47:48.914Z,99236.39
2018-12-08T11:52:52.305Z,99243.12
2018-12-08T11:57:55.750Z,99250.00
2018-12-08T12:02:59.221Z,99251.34
2018-12-08T12:08:02.564Z,99247.99
2018-12-08T12:13:06.019Z,99245.89
2018-12-08T12:18:09.421Z,99248.17
2018-12-08T12:23:12.814Z,99255.48
2018-12-08T12:28:42.041Z,99256.19
2018-12-08T12:33:45.476Z,99251.30
2018-12-08T12:38:48.850Z,99260.33
2018-12-08T12:43:52.189Z,99267.82
2018-12-08T12:54:05.025Z,99253.37
2018-12-08T12:59:08.396Z,99256.99
2018-12-08T13:04:11.790Z,99262.49
2018-12-08T13:09:15.221Z,99259.69
2018-12-08T13:14:18.743Z,99252.86
2018-12-08T13:19:22.451Z,99261.88
2018-12-08T13:24:49.985Z,99247.48
2018-12-08T13:29:53.607Z,99263.01
2018-12-08T13:34:56.968Z,99253.65
2018-12-08T13:40:00.585Z,99256.33
2018-12-08T13:45:23.367Z,99258.61
2018-12-08T13:50:26.786Z,99261.83
2018-12-08T13:55:30.843Z,99256.73
2018-12-08T14:00:34.358Z,99261.94
2018-12-08T14:05:37.716Z,99256.47
2018-12-08T14:10:41.115Z,99251.16
2018-12-08T14:15:44.994Z,99269.00
2018-12-08T14:20:48.415Z,99267.03
2018-12-08T14:26:11.588Z,99274.83
2018-12-08T14:31:15.064Z,99273.34
2018-12-08T14:36:18.442Z,99271.92
2018-12-08T14:41:22.221Z,99265.41
2018-12-08T14:46:45.620Z,99269.11
2018-12-08T14:51:49.097Z,99256.68
2018-12-08T14:57:12.065Z,99275.49
2018-12-08T15:02:15.746Z,99269.84
2018-12-08T15:07:19.239Z,99253.87
2018-12-08T15:12:22.768Z,99242.03
2018-12-08T15:17:26.217Z,99256.77
2018-12-08T15:22:29.572Z,99256.48
2018-12-08T15:38:05.275Z,99263.02
2018-12-08T15:43:09.108Z,99256.77
2018-12-08T15:48:13.144Z,99262.36
2018-12-08T15:53:17.215Z,99261.90
2018-12-08T15:58:20.583Z,99259.25
2018-12-08T16:03:24.221Z,99258.00
2018-12-08T16:13:36.764Z,99268.70
2018-12-08T16:18:40.192Z,99264.63
2018-12-08T16:23:43.559Z,99259.14
2018-12-08T16:28:47.022Z,99259.70
2018-12-08T16:34:10.187Z,99248.17
2018-12-08T16:44:42.547Z,99232.22
2018-12-08T16:49:46.035Z,99217.53
2018-12-08T16:54:49.527Z,99209.77
2018-12-08T16:59:52.983Z,99196.40
2018-12-08T17:04:56.464Z,99194.08
2018-12-08T17:10:00.082Z,99190.29
2018-12-08T17:15:03.637Z,99183.05
2018-12-08T17:20:26.514Z,99179.58
2018-12-08T17:25:29.979Z,99178.35
2018-12-08T17:30:33.385Z,99161.91
2018-12-08T17:35:37.063Z,99143.89
2018-12-08T17:40:40.491Z,99139.30
2018-12-08T17:45:43.899Z,99122.09
2018-12-08T17:50:47.452Z,99105.27
2018-12-08T17:55:51.245Z,99084.33
2018-12-08T18:01:14.557Z,99067.05
2018-12-08T18:06:30.350Z,99044.19
2018-12-08T18:11:35.158Z,99021.45
2018-12-08T18:16:38.532Z,99007.55
2018-12-08T18:26:50.478Z,98988.64
2018-12-08T18:31:54.446Z,98977.89
2018-12-08T18:36:57.846Z,98962.30
2018-12-08T18:42:01.244Z,98955.22
2018-12-08T18:47:04.644Z,98945.58
2018-12-08T18:52:08.090Z,98933.91
2018-12-08T18:57:12.324Z,98919.18
2018-12-08T19:02:15.713Z,98904.47
2018-12-08T19:07:19.060Z,98894.92
2018-12-08T19:12:22.466Z,98881.52
2018-12-08T19:17:25.868Z,98863.81
2018-12-08T19:27:58.545Z,98840.75
2018-12-08T19:33:01.940Z,98837.84
2018-12-08T19:38:05.317Z,98821.17
2018-12-08T19:43:08.822Z,98794.94
2018-12-08T19:48:12.434Z,98783.59
2018-12-08T19:53:15.772Z,98787.45
2018-12-08T19:58:19.231Z,98759.27
2018-12-08T20:03:22.543Z,98746.79
2018-12-08T20:08:25.924Z,98728.39
2018-12-08T20:13:29.330Z,98715.38
2018-12-08T20:18:32.757Z,98680.08
2018-12-08T20:23:36.157Z,98665.60
2018-12-08T20:28:39.640Z,98650.76
2018-12-08T20:33:43.053Z,98618.18
2018-12-08T20:38:46.454Z,98619.70
2018-12-08T20:43:49.769Z,98598.92
2018-12-08T20:48:53.178Z,98593.73
2018-12-08T20:53:56.597Z,98571.81
2018-12-08T20:59:00.005Z,98560.91
2018-12-08T21:04:03.366Z,98552.19
2018-12-08T21:09:06.740Z,98517.25
2018-12-08T21:14:10.157Z,98511.70
2018-12-08T21:19:13.604Z,98485.47
2018-12-08T21:24:17.075Z,98484.39
2018-12-08T21:29:20.612Z,98465.95
2018-12-08T21:34:43.402Z,98458.30
2018-12-08T21:39:46.822Z,98437.55
2018-12-08T21:44:50.240Z,98421.51
2018-12-08T21:50:13.246Z,98402.02
2018-12-08T21:55:16.955Z,98389.70
2018-12-08T22:00:30.839Z,98389.28
2018-12-08T22:05:35.919Z,98395.98
2018-12-08T22:10:39.438Z,98390.85
2018-12-08T22:15:43.144Z,98376.89
2018-12-08T22:20:46.790Z,98378.50
2018-12-08T22:25:50.197Z,98381.06
2018-12-08T22:30:53.609Z,98371.83
2018-12-08T22:35:57.203Z,98368.38
2018-12-08T22:41:00.598Z,98334.88
2018-12-08T22:46:04.100Z,98344.30
2018-12-08T22:51:07.432Z,98336.61
2018-12-08T22:56:10.825Z,98297.70
2018-12-08T23:01:14.240Z,98307.06
2018-12-08T23:06:17.675Z,98302.75
2018-12-08T23:11:21.397Z,98301.06
2018-12-08T23:16:24.793Z,98294.89
2018-12-08T23:21:28.171Z,98278.64
2018-12-08T23:26:31.582Z,98262.25
2018-12-08T23:31:34.940Z,98231.70
2018-12-08T23:36:38.361Z,98254.08
2018-12-08T23:41:41.718Z,98269.41
2018-12-08T23:46:45.079Z,98261.39
2018-12-08T23:51:48.469Z,98265.31
2018-12-08T23:56:54.958Z,98368.38
